Morning Sun, Iowa
Current Conditions -  °F | °C
As of 1:15 PM on Thursday 30 Oct 2014 (Local Time) from KMPZ Reporting Station
Scattered Clouds Scattered Clouds  
Wind Chill: 56°   Ceiling: Unl
Heat Index: 56°   Visibility: 10mi
Dew Point: 36°   Wind: 10mph
Humidity: 48%   Direction: 130°SE
Pressure: 30.02"   Gusts: NA
Location:  41.1°N, 91.26°W
Report Text: KMPZ 301815Z AUTO 13009KT 10SM SCT070 SCT095 13/02 A3002 RMK AO2 T01310022
Loading
Personal Weather Stations






























Interactive Weather Map
Tropical Storm Tracking
New forecast layout! Learn more

10-Day Weather Forecast

Advertisements
Track Severe Weather on mobile